Overseas Luzon — V7NE5 — position and weather

sailwx.info

Track history (hours):
 
Tides and Currents Weather Stations Pressure Air Temp Water Temp Dewpoint Dewpoint Depression Visibility Wind Speed Wind Dir Waves Ship Positions

Overseas Luzon

Last reported at 2016-Mar-25 20:27 UTC. Time now 2016-Apr-30 05:14 UTC.
Position N 31°01' W 117°08'.
Warning: this ship's position is 35 days out of date.

Length 228 m; draft 8.2 m.

Type: Tanker. MMSI: 538002946.

Date/timePositionNaut miles runAvg speedWind from/ knotsBaromVisibWave heightAir tempDewpointWater temp
2016-Mar-25 20:27N 31°01' W 117°08'4714.4
2016-Mar-25 17:10N 31°47' W 117°23'914.3
2016-Mar-25 16:32N 31°55' W 117°26'1514.6
2016-Mar-25 15:29N 32°10' W 117°31'1314.4
2016-Mar-25 14:33N 32°23' W 117°35'1313.5
2016-Mar-25 13:33N 32°35' W 117°42'1313.3
2016-Mar-25 12:34N 32°46' W 117°51'1414.3
2016-Mar-25 11:34N 32°59' W 117°57'1515.0
2016-Mar-25 10:34N 33°13' W 118°04'1312.6
2016-Mar-25 09:34N 33°25' W 118°09'1211.6
2016-Mar-25 08:33N 33°36' W 118°13'8 7.8
2016-Mar-25 07:33N 33°44' W 118°13'0 0.1
2016-Mar-25 06:33N 33°44' W 118°13'0 0.1
2016-Mar-25 05:33N 33°44' W 118°13'0 0.1
2016-Mar-25 04:33N 33°44' W 118°13'1 0.8
2016-Mar-25 03:34N 33°45' W 118°13'1 0.5
2016-Mar-25 02:30N 33°45' W 118°13'0 0.0
2016-Mar-25 01:30N 33°45' W 118°13'0 0.0
2016-Mar-24 17:06N 33°45' W 118°13'0 0.0
2016-Mar-24 16:33N 33°45' W 118°13'0 0.0
2016-Mar-24 15:33N 33°45' W 118°13'0 0.0
2016-Mar-24 14:33N 33°45' W 118°13'0 0.0
2016-Mar-24 13:33N 33°45' W 118°13'0 0.0
2016-Mar-24 12:33N 33°45' W 118°13'0 0.0
2016-Mar-24 11:33N 33°45' W 118°13'0 0.0
2016-Mar-24 10:33N 33°45' W 118°13'0 0.0
2016-Mar-24 09:33N 33°45' W 118°13'0 0.0
2016-Mar-24 08:33N 33°45' W 118°13'0 0.0
2016-Mar-24 07:33N 33°45' W 118°13'0 0.0
2016-Mar-24 06:33N 33°45' W 118°13'0 0.0
2016-Mar-24 05:33N 33°45' W 118°13'0 0.0
2016-Mar-24 04:30N 33°45' W 118°13'0 0.0
2016-Mar-24 03:33N 33°45' W 118°13'0 0.0
2016-Mar-24 02:33N 33°45' W 118°13'0 0.0
2016-Mar-24 01:33N 33°45' W 118°13'0 0.0
2016-Mar-24 00:33N 33°45' W 118°13'2 1.6
2016-Mar-23 23:33N 33°44' W 118°12'6 5.3
2016-Mar-23 22:32N 33°40' W 118°08'0 0.0
2016-Mar-23 21:32N 33°40' W 118°08'0 0.0
2016-Mar-23 20:32N 33°40' W 118°08'0 0.2
2016-Mar-23 19:32N 33°40' W 118°08'0 0.2
2016-Mar-23 18:32N 33°40' W 118°08'0 0.3
2016-Mar-23 17:32N 33°40' W 118°08'0 0.1
2016-Mar-23 16:32N 33°40' W 118°08'1 0.8
2016-Mar-23 15:33N 33°40' W 118°08'6 6.1
2016-Mar-23 14:32N 33°34' W 118°09'1311.6
2016-Mar-23 13:25N 33°22' W 118°04'1012.1
2016-Mar-23 12:33N 33°12' W 117°59'1313.3
2016-Mar-23 11:33N 32°60' W 117°53'1313.3
2016-Mar-23 10:34N 32°47' W 117°51'9 8.8
2016-Mar-23 09:33N 32°39' W 117°47'1111.5
2016-Mar-23 08:34N 32°30' W 117°38'1212.0
2016-Mar-23 07:34N 32°19' W 117°34'  
Track history (hours):
 
Tides and Currents Weather Stations Pressure Air Temp Water Temp Dewpoint Dewpoint Depression Visibility Wind Speed Wind Dir Waves Ship Positions

Overseas Luzon

Last reported at 2016-Mar-25 20:27 UTC. Time now 2016-Apr-30 05:14 UTC.
Position N 31°01' W 117°08'.
Warning: this ship's position is 35 days out of date.

Length 228 m; draft 8.2 m.

Type: Tanker. MMSI: 538002946.

Date/timePositionNaut miles runAvg speedWind from/ knotsBaromVisibWave heightAir tempDewpointWater temp
2016-Mar-25 20:27N 31°01' W 117°08'4714.4
2016-Mar-25 17:10N 31°47' W 117°23'914.3
2016-Mar-25 16:32N 31°55' W 117°26'1514.6
2016-Mar-25 15:29N 32°10' W 117°31'1314.4
2016-Mar-25 14:33N 32°23' W 117°35'1313.5
2016-Mar-25 13:33N 32°35' W 117°42'1313.3
2016-Mar-25 12:34N 32°46' W 117°51'1414.3
2016-Mar-25 11:34N 32°59' W 117°57'1515.0
2016-Mar-25 10:34N 33°13' W 118°04'1312.6
2016-Mar-25 09:34N 33°25' W 118°09'1211.6
2016-Mar-25 08:33N 33°36' W 118°13'8 7.8
2016-Mar-25 07:33N 33°44' W 118°13'0 0.1
2016-Mar-25 06:33N 33°44' W 118°13'0 0.1
2016-Mar-25 05:33N 33°44' W 118°13'0 0.1
2016-Mar-25 04:33N 33°44' W 118°13'1 0.8
2016-Mar-25 03:34N 33°45' W 118°13'1 0.5
2016-Mar-25 02:30N 33°45' W 118°13'0 0.0
2016-Mar-25 01:30N 33°45' W 118°13'0 0.0
2016-Mar-24 17:06N 33°45' W 118°13'0 0.0
2016-Mar-24 16:33N 33°45' W 118°13'0 0.0
2016-Mar-24 15:33N 33°45' W 118°13'0 0.0
2016-Mar-24 14:33N 33°45' W 118°13'0 0.0
2016-Mar-24 13:33N 33°45' W 118°13'0 0.0
2016-Mar-24 12:33N 33°45' W 118°13'0 0.0
2016-Mar-24 11:33N 33°45' W 118°13'0 0.0
2016-Mar-24 10:33N 33°45' W 118°13'0 0.0
2016-Mar-24 09:33N 33°45' W 118°13'0 0.0
2016-Mar-24 08:33N 33°45' W 118°13'0 0.0
2016-Mar-24 07:33N 33°45' W 118°13'0 0.0
2016-Mar-24 06:33N 33°45' W 118°13'0 0.0
2016-Mar-24 05:33N 33°45' W 118°13'0 0.0
2016-Mar-24 04:30N 33°45' W 118°13'0 0.0
2016-Mar-24 03:33N 33°45' W 118°13'0 0.0
2016-Mar-24 02:33N 33°45' W 118°13'0 0.0
2016-Mar-24 01:33N 33°45' W 118°13'0 0.0
2016-Mar-24 00:33N 33°45' W 118°13'2 1.6
2016-Mar-23 23:33N 33°44' W 118°12'6 5.3
2016-Mar-23 22:32N 33°40' W 118°08'0 0.0
2016-Mar-23 21:32N 33°40' W 118°08'0 0.0
2016-Mar-23 20:32N 33°40' W 118°08'0 0.2
2016-Mar-23 19:32N 33°40' W 118°08'0 0.2
2016-Mar-23 18:32N 33°40' W 118°08'0 0.3
2016-Mar-23 17:32N 33°40' W 118°08'0 0.1
2016-Mar-23 16:32N 33°40' W 118°08'1 0.8
2016-Mar-23 15:33N 33°40' W 118°08'6 6.1
2016-Mar-23 14:32N 33°34' W 118°09'1311.6
2016-Mar-23 13:25N 33°22' W 118°04'1012.1
2016-Mar-23 12:33N 33°12' W 117°59'1313.3
2016-Mar-23 11:33N 32°60' W 117°53'1313.3
2016-Mar-23 10:34N 32°47' W 117°51'9 8.8
2016-Mar-23 09:33N 32°39' W 117°47'1111.5
2016-Mar-23 08:34N 32°30' W 117°38'1212.0
2016-Mar-23 07:34N 32°19' W 117°34'  

Dump ship's entire track history